createdAt,value
2018-10-02T04:59:16.854Z,69.48
2018-10-02T05:01:44.320Z,68.40
2018-10-02T05:04:11.873Z,67.75
2018-10-02T05:06:40.232Z,67.03
2018-10-02T05:09:07.677Z,66.98
2018-10-02T05:11:35.067Z,66.54
2018-10-02T05:14:02.553Z,65.88
2018-10-02T05:16:30.041Z,65.25
2018-10-02T05:18:57.455Z,65.00
2018-10-02T05:21:24.901Z,64.90
2018-10-02T05:23:52.338Z,64.81
2018-10-02T05:26:19.759Z,64.88
2018-10-02T05:28:47.219Z,65.16
2018-10-02T05:31:14.656Z,65.35
2018-10-02T05:33:42.069Z,65.62
2018-10-02T05:36:09.507Z,66.44
2018-10-02T05:38:37.929Z,66.59
2018-10-02T05:41:05.396Z,66.85
2018-10-02T05:43:32.839Z,66.55
2018-10-02T05:46:00.283Z,66.46
2018-10-02T05:48:27.827Z,66.44
2018-10-02T05:50:55.264Z,65.95
2018-10-02T05:53:22.797Z,66.09
2018-10-02T05:55:50.215Z,66.18
2018-10-02T05:58:17.846Z,66.13
2018-10-02T06:00:45.273Z,64.98
2018-10-02T06:03:12.746Z,63.09
2018-10-02T06:05:40.158Z,60.64
2018-10-02T06:08:10.287Z,59.27
2018-10-02T06:10:37.784Z,58.31
2018-10-02T06:13:05.292Z,58.08
2018-10-02T06:15:32.709Z,57.18
2018-10-02T06:18:00.231Z,56.45
2018-10-02T06:20:27.693Z,55.86
2018-10-02T06:22:55.213Z,54.41
2018-10-02T06:25:22.823Z,53.32
2018-10-02T06:27:50.553Z,52.92
2018-10-02T06:30:18.044Z,54.15
2018-10-02T06:32:45.634Z,55.61
2018-10-02T06:35:13.198Z,56.70
2018-10-02T06:37:40.693Z,56.77
2018-10-02T06:40:08.250Z,55.88
2018-10-02T06:42:35.701Z,54.89
2018-10-02T06:45:03.213Z,54.98
2018-10-02T06:47:30.558Z,55.18
2018-10-02T06:49:58.145Z,55.01
2018-10-02T06:52:25.848Z,54.92
2018-10-02T06:54:53.182Z,52.93
2018-10-02T06:57:20.611Z,50.99
2018-10-02T06:59:48.084Z,48.13
2018-10-02T07:02:15.518Z,45.67
2018-10-02T07:04:42.916Z,44.00
2018-10-02T07:07:10.338Z,43.29
2018-10-02T07:09:37.879Z,43.74
2018-10-02T07:12:05.329Z,44.42
2018-10-02T07:14:34.169Z,45.38
2018-10-02T07:17:01.964Z,45.32
2018-10-02T07:19:29.425Z,45.18
2018-10-02T07:21:57.005Z,45.48
2018-10-02T07:24:24.498Z,44.72
2018-10-02T07:26:51.992Z,43.14
2018-10-02T07:29:19.359Z,44.25
2018-10-02T07:31:46.816Z,45.92
2018-10-02T07:34:14.299Z,47.69
2018-10-02T07:36:41.949Z,49.29
2018-10-02T07:39:09.302Z,47.94
2018-10-02T07:41:36.836Z,44.82
2018-10-02T07:44:04.176Z,42.42
2018-10-02T07:46:31.259Z,40.85
2018-10-02T07:48:58.330Z,40.48
2018-10-02T07:51:25.447Z,43.09
2018-10-02T07:53:52.551Z,45.22
2018-10-02T07:56:19.561Z,47.39
2018-10-02T07:58:46.606Z,48.99
2018-10-02T08:01:13.549Z,49.53
2018-10-02T08:03:40.979Z,50.08
2018-10-02T08:06:08.491Z,50.75
2018-10-02T08:08:35.941Z,51.07
2018-10-02T08:11:03.386Z,50.92
2018-10-02T08:13:30.841Z,48.83
2018-10-02T08:15:58.268Z,45.70
2018-10-02T08:18:25.522Z,45.31
2018-10-02T08:20:52.524Z,43.75
2018-10-02T08:23:19.603Z,40.82
2018-10-02T08:25:46.735Z,39.50
2018-10-02T08:28:13.763Z,38.86
2018-10-02T08:30:40.741Z,39.72
2018-10-02T08:33:07.721Z,39.86
2018-10-02T08:35:34.723Z,39.15
2018-10-02T08:38:01.614Z,38.58
2018-10-02T08:40:28.636Z,37.67
2018-10-02T08:42:55.641Z,35.51
2018-10-02T08:45:22.636Z,36.88
2018-10-02T08:47:50.355Z,36.89
2018-10-02T08:50:17.335Z,36.44
2018-10-02T08:52:44.329Z,36.51
2018-10-02T08:55:11.344Z,36.17
2018-10-02T08:57:38.371Z,36.41
2018-10-02T09:00:05.353Z,34.99
2018-10-02T09:02:32.356Z,34.94
2018-10-02T09:04:59.341Z,36.54
2018-10-02T09:07:26.431Z,39.16
2018-10-02T09:09:53.537Z,39.80
2018-10-02T09:12:20.569Z,38.81
2018-10-02T09:14:47.523Z,37.32
2018-10-02T09:17:15.016Z,38.25
2018-10-02T09:19:42.495Z,38.43
2018-10-02T09:22:09.895Z,38.87
2018-10-02T09:24:37.459Z,39.53
2018-10-02T09:27:04.894Z,40.26
2018-10-02T09:29:32.355Z,40.33
2018-10-02T09:32:05.523Z,38.26
2018-10-02T09:37:30.721Z,36.87
2018-10-02T09:43:08.159Z,36.70
2018-10-02T09:45:35.786Z,36.56
2018-10-02T09:48:02.988Z,36.92
2018-10-02T09:50:30.533Z,37.01
2018-10-02T09:52:57.491Z,37.70
2018-10-02T09:55:24.515Z,37.68
2018-10-02T09:57:51.719Z,38.44
2018-10-02T10:00:18.746Z,37.96
2018-10-02T10:02:45.983Z,38.18
2018-10-02T10:05:12.990Z,39.05
2018-10-02T10:07:39.964Z,39.16
2018-10-02T10:10:06.945Z,39.04
2018-10-02T10:12:33.995Z,37.75
2018-10-02T10:15:00.976Z,36.25
2018-10-02T10:17:28.047Z,35.47
2018-10-02T10:19:55.043Z,33.90
2018-10-02T10:22:22.111Z,33.56
2018-10-02T10:24:49.165Z,33.38
2018-10-02T10:27:16.358Z,33.20
2018-10-02T10:29:43.661Z,33.17
2018-10-02T10:32:10.727Z,32.87
2018-10-02T10:34:37.826Z,33.11
2018-10-02T10:37:04.847Z,32.96
2018-10-02T10:39:32.182Z,31.63
2018-10-02T10:41:59.173Z,31.10
2018-10-02T10:44:26.338Z,31.97
2018-10-02T10:46:53.456Z,32.56
2018-10-02T10:49:20.388Z,32.88
2018-10-02T10:51:47.649Z,33.66
2018-10-02T10:54:14.735Z,33.56
2018-10-02T10:56:41.842Z,33.35
2018-10-02T10:59:08.829Z,33.44
2018-10-02T11:01:36.252Z,33.26
2018-10-02T11:04:03.696Z,32.55
2018-10-02T11:09:05.015Z,32.67
2018-10-02T11:11:32.419Z,31.75
2018-10-02T11:13:59.984Z,31.25
2018-10-02T11:16:27.541Z,30.52
2018-10-02T11:18:55.136Z,29.28
2018-10-02T11:21:22.672Z,30.00
2018-10-02T11:23:50.363Z,30.53
2018-10-02T11:26:18.915Z,30.43
2018-10-02T11:28:46.383Z,30.06
2018-10-02T11:31:13.821Z,30.37
2018-10-02T11:33:41.220Z,31.06
2018-10-02T11:36:09.120Z,30.81
2018-10-02T11:38:36.569Z,29.35
2018-10-02T11:41:04.310Z,29.32
2018-10-02T11:43:31.356Z,29.53
2018-10-02T11:45:58.335Z,30.01
2018-10-02T11:48:25.444Z,29.85
2018-10-02T11:50:52.955Z,28.91
2018-10-02T11:53:20.416Z,29.12
2018-10-02T11:55:48.000Z,29.11
2018-10-02T11:58:15.392Z,28.15
2018-10-02T12:00:43.045Z,27.29
2018-10-02T12:03:10.717Z,28.12
2018-10-02T12:05:38.118Z,28.57
2018-10-02T12:08:05.657Z,29.15
2018-10-02T12:10:33.282Z,29.34
2018-10-02T12:13:00.831Z,29.18
2018-10-02T12:15:28.306Z,28.91
2018-10-02T12:17:55.785Z,26.86
2018-10-02T12:20:23.243Z,25.61
2018-10-02T12:22:50.673Z,26.16
2018-10-02T12:25:18.175Z,25.74
2018-10-02T12:27:45.673Z,24.95
2018-10-02T12:30:13.086Z,24.48
2018-10-02T12:32:41.372Z,24.96
2018-10-02T12:35:08.858Z,24.90
2018-10-02T12:37:36.281Z,25.31
2018-10-02T12:40:03.767Z,23.06
2018-10-02T12:42:31.532Z,23.31
2018-10-02T12:44:58.987Z,23.90
2018-10-02T12:47:26.600Z,24.55
2018-10-02T12:49:54.079Z,24.45
2018-10-02T12:52:21.707Z,24.40
2018-10-02T12:54:49.176Z,25.15
2018-10-02T12:57:18.027Z,25.87
2018-10-02T12:59:45.420Z,25.73
2018-10-02T13:02:12.957Z,24.13
2018-10-02T13:04:40.456Z,24.12
2018-10-02T13:07:08.027Z,24.85
2018-10-02T13:09:35.484Z,27.09
2018-10-02T13:12:03.048Z,27.96
2018-10-02T13:14:30.814Z,28.65
2018-10-02T13:16:58.385Z,28.43
2018-10-02T13:19:25.866Z,28.51
2018-10-02T13:21:53.346Z,28.27
2018-10-02T13:24:20.848Z,27.82
2018-10-02T13:26:48.263Z,27.49
2018-10-02T13:29:15.944Z,28.68
2018-10-02T13:31:43.348Z,28.99
2018-10-02T13:34:10.797Z,28.62
2018-10-02T13:36:38.217Z,28.50
2018-10-02T13:39:05.616Z,28.45
2018-10-02T13:41:32.759Z,28.72
2018-10-02T13:44:00.221Z,27.94
2018-10-02T13:46:27.817Z,26.94
2018-10-02T13:48:55.247Z,27.10
2018-10-02T13:51:22.692Z,27.39
2018-10-02T13:53:50.131Z,27.72
2018-10-02T13:56:17.583Z,28.40
2018-10-02T13:58:45.016Z,27.62
2018-10-02T14:01:12.527Z,28.25
2018-10-02T14:03:39.959Z,28.07
2018-10-02T14:06:07.526Z,28.55
2018-10-02T14:08:35.075Z,28.31
2018-10-02T14:11:02.664Z,27.67
2018-10-02T14:13:30.188Z,26.80
2018-10-02T14:15:57.693Z,27.04
2018-10-02T14:18:25.136Z,27.40
2018-10-02T14:20:52.593Z,27.08
2018-10-02T14:23:20.098Z,25.42
2018-10-02T14:25:47.706Z,25.14
2018-10-02T14:28:15.207Z,23.99
2018-10-02T14:30:42.677Z,23.44
2018-10-02T14:33:10.156Z,23.67
2018-10-02T14:35:37.606Z,24.43
2018-10-02T14:38:05.035Z,24.92
2018-10-02T14:40:32.518Z,26.43
2018-10-02T14:43:00.008Z,26.87
2018-10-02T14:45:27.416Z,27.34
2018-10-02T14:47:54.890Z,27.87
2018-10-02T14:50:22.356Z,28.09
2018-10-02T14:52:49.797Z,28.36
2018-10-02T14:55:17.223Z,29.12
2018-10-02T14:57:44.653Z,29.21
2018-10-02T15:00:11.643Z,30.02
2018-10-02T15:02:39.051Z,30.13
2018-10-02T15:05:06.513Z,29.78
2018-10-02T15:07:33.951Z,30.06
2018-10-02T15:10:01.415Z,30.23
2018-10-02T15:12:28.846Z,30.66
2018-10-02T15:14:56.286Z,31.53
2018-10-02T15:17:23.796Z,32.00
2018-10-02T15:19:51.216Z,32.24
2018-10-02T15:22:18.674Z,32.44
2018-10-02T15:24:46.160Z,32.24
2018-10-02T15:27:13.583Z,32.64
2018-10-02T15:29:41.050Z,32.60
2018-10-02T15:32:08.615Z,32.66
2018-10-02T15:34:36.137Z,32.88
2018-10-02T15:37:03.632Z,32.60
2018-10-02T15:39:31.098Z,32.65
2018-10-02T15:41:58.691Z,32.51
2018-10-02T15:44:26.152Z,32.60
2018-10-02T15:46:53.653Z,32.53
2018-10-02T15:49:21.144Z,32.67
2018-10-02T15:51:48.723Z,32.52
2018-10-02T15:54:16.316Z,32.62
2018-10-02T15:56:43.901Z,32.24
2018-10-02T15:59:11.582Z,32.13
2018-10-02T16:01:39.148Z,32.12
2018-10-02T16:04:06.549Z,32.21
2018-10-02T16:06:33.966Z,32.39
2018-10-02T16:09:01.502Z,32.29
2018-10-02T16:11:29.090Z,32.28
2018-10-02T16:13:56.531Z,32.26
2018-10-02T16:16:24.048Z,32.02
2018-10-02T16:18:51.512Z,32.15
2018-10-02T16:21:18.989Z,32.80
2018-10-02T16:23:46.419Z,33.40
2018-10-02T16:26:13.992Z,33.80
2018-10-02T16:28:41.395Z,34.75
2018-10-02T16:31:08.888Z,35.11
2018-10-02T16:33:36.445Z,35.37
2018-10-02T16:36:03.894Z,35.73
2018-10-02T16:38:31.338Z,36.17
2018-10-02T16:40:58.918Z,36.34
2018-10-02T16:43:26.495Z,36.52
2018-10-02T16:45:54.063Z,36.32
2018-10-02T16:48:21.514Z,36.25
2018-10-02T16:50:48.973Z,35.99
2018-10-02T16:53:16.165Z,35.85
2018-10-02T16:55:43.179Z,36.00
2018-10-02T16:58:10.593Z,36.16
2018-10-02T17:00:38.020Z,36.44
2018-10-02T17:03:05.471Z,36.77
2018-10-02T17:05:32.909Z,36.93
2018-10-02T17:08:00.484Z,37.10
2018-10-02T17:10:27.513Z,37.61
2018-10-02T17:12:54.493Z,37.29
2018-10-02T17:15:22.891Z,37.20
2018-10-02T17:17:50.331Z,37.33
2018-10-02T17:20:17.816Z,37.69
2018-10-02T17:22:45.536Z,37.99
2018-10-02T17:25:13.013Z,38.08
2018-10-02T17:27:40.499Z,38.37
2018-10-02T17:30:08.048Z,38.54
2018-10-02T17:32:35.577Z,38.45
2018-10-02T17:35:03.026Z,38.71
2018-10-02T17:37:30.477Z,39.27
2018-10-02T17:39:58.035Z,39.91
2018-10-02T17:42:25.475Z,39.81
2018-10-02T17:44:52.954Z,39.90
2018-10-02T17:47:20.396Z,39.93
2018-10-02T17:49:47.808Z,40.09
2018-10-02T17:52:15.252Z,40.25
2018-10-02T17:54:42.754Z,40.96
2018-10-02T17:57:10.283Z,40.95
2018-10-02T17:59:37.698Z,41.23
2018-10-02T18:02:05.405Z,41.39
2018-10-02T18:04:32.854Z,41.42
2018-10-02T18:07:00.411Z,41.88
2018-10-02T18:09:27.905Z,42.41
2018-10-02T18:11:55.402Z,42.43
2018-10-02T18:14:22.855Z,42.29
2018-10-02T18:16:50.309Z,42.37
2018-10-02T18:19:17.748Z,42.17
2018-10-02T18:21:45.463Z,42.13
2018-10-02T18:24:12.887Z,42.04
2018-10-02T18:26:39.919Z,42.30
2018-10-02T18:29:06.914Z,42.38
2018-10-02T18:31:33.915Z,42.92
2018-10-02T18:34:00.964Z,43.10
2018-10-02T18:36:28.270Z,43.55
2018-10-02T18:38:55.374Z,43.34
2018-10-02T18:41:23.267Z,43.32
2018-10-02T18:43:50.625Z,43.54
2018-10-02T18:46:17.687Z,43.65
2018-10-02T18:48:44.692Z,43.79
2018-10-02T18:51:11.646Z,44.25
2018-10-02T18:56:04.178Z,44.42
2018-10-02T18:58:31.181Z,44.28
2018-10-02T19:00:58.128Z,44.33
2018-10-02T19:03:25.160Z,44.42
2018-10-02T19:05:52.191Z,44.58
2018-10-02T19:08:19.255Z,44.88
2018-10-02T19:10:46.233Z,45.07
2018-10-02T19:13:13.251Z,45.37
2018-10-02T19:15:40.220Z,45.41
2018-10-02T19:18:07.280Z,45.38
2018-10-02T19:20:39.854Z,45.64
2018-10-02T19:23:06.920Z,45.51
2018-10-02T19:25:33.968Z,45.70
2018-10-02T19:28:01.014Z,46.03
2018-10-02T19:30:28.006Z,46.48
2018-10-02T19:32:55.112Z,46.15
2018-10-02T19:35:22.083Z,45.86
2018-10-02T19:37:49.177Z,45.60
2018-10-02T19:40:16.219Z,45.72
2018-10-02T19:42:43.314Z,45.98
2018-10-02T19:45:10.336Z,45.94
2018-10-02T19:47:37.362Z,45.67
2018-10-02T19:50:04.412Z,45.54
2018-10-02T19:52:31.456Z,45.38
2018-10-02T19:54:58.481Z,45.31
2018-10-02T19:57:25.560Z,45.26
2018-10-02T19:59:52.568Z,45.33
2018-10-02T20:02:19.568Z,45.43
2018-10-02T20:04:46.545Z,45.59
2018-10-02T20:07:13.516Z,45.92
2018-10-02T20:09:40.537Z,46.10
2018-10-02T20:12:07.617Z,46.18
2018-10-02T20:14:34.617Z,46.48
2018-10-02T20:17:01.612Z,46.91
2018-10-02T20:19:28.590Z,47.28
2018-10-02T20:21:55.643Z,47.42
2018-10-02T20:24:22.619Z,47.77
2018-10-02T20:26:49.774Z,47.90
2018-10-02T20:29:16.764Z,47.95
2018-10-02T20:31:43.762Z,48.11
2018-10-02T20:34:10.815Z,48.13
2018-10-02T20:36:37.861Z,48.06
2018-10-02T20:39:04.853Z,48.50
2018-10-02T20:41:31.893Z,48.69
2018-10-02T20:43:58.912Z,48.78
2018-10-02T20:46:25.940Z,49.03
2018-10-02T20:48:53.105Z,49.09
2018-10-02T20:51:20.143Z,49.24
2018-10-02T20:53:47.129Z,49.41
2018-10-02T20:56:14.247Z,49.66
2018-10-02T20:58:41.256Z,49.66
2018-10-02T21:01:08.280Z,49.68
2018-10-02T21:03:35.256Z,49.77
2018-10-02T21:06:02.271Z,49.93
2018-10-02T21:08:29.311Z,50.04
2018-10-02T21:10:56.308Z,50.25
2018-10-02T21:13:23.307Z,50.67
2018-10-02T21:15:50.306Z,51.08
2018-10-02T21:18:17.266Z,50.91
2018-10-02T21:20:44.312Z,51.22
2018-10-02T21:23:11.266Z,51.33
2018-10-02T21:25:38.226Z,51.66
2018-10-02T21:28:05.176Z,52.09
2018-10-02T21:30:32.727Z,52.24
2018-10-02T21:33:00.178Z,52.29
2018-10-02T21:35:27.624Z,52.85
2018-10-02T21:37:55.093Z,52.96
2018-10-02T21:40:22.653Z,53.02
2018-10-02T21:42:49.999Z,53.14
2018-10-02T21:45:17.404Z,53.39
2018-10-02T21:47:44.923Z,53.63
2018-10-02T21:50:12.369Z,54.49
2018-10-02T21:52:39.823Z,55.26
2018-10-02T21:55:07.300Z,55.87
2018-10-02T21:57:34.817Z,56.03
2018-10-02T22:00:02.731Z,56.45
2018-10-02T22:05:03.996Z,56.81
2018-10-02T22:07:31.729Z,56.60
2018-10-02T22:09:59.191Z,56.83
2018-10-02T22:12:26.661Z,56.77
2018-10-02T22:14:54.137Z,57.00
2018-10-02T22:17:21.610Z,56.86
2018-10-02T22:19:49.087Z,56.88
2018-10-02T22:22:16.567Z,56.70
2018-10-02T22:24:43.977Z,57.18
2018-10-02T22:27:11.467Z,56.65
2018-10-02T22:29:38.946Z,56.66
2018-10-02T22:32:06.371Z,56.47
2018-10-02T22:34:33.798Z,56.17
2018-10-02T22:37:01.224Z,56.53
2018-10-02T22:39:28.662Z,56.52
2018-10-02T22:41:56.157Z,56.22
2018-10-02T22:44:23.577Z,56.39
2018-10-02T22:46:51.026Z,56.41
2018-10-02T22:49:18.474Z,56.49
2018-10-02T22:51:45.909Z,56.76
2018-10-02T22:54:13.383Z,56.27
2018-10-02T22:56:40.920Z,56.18
2018-10-02T22:59:08.539Z,56.58
2018-10-02T23:01:36.094Z,56.84
2018-10-02T23:04:03.656Z,56.98
2018-10-02T23:06:31.079Z,56.83
2018-10-02T23:08:58.595Z,56.60
2018-10-02T23:11:25.997Z,56.52
2018-10-02T23:13:53.407Z,56.51
2018-10-02T23:16:20.869Z,56.50
2018-10-02T23:18:48.349Z,56.32
2018-10-02T23:21:16.044Z,56.30
2018-10-02T23:23:43.464Z,56.52
2018-10-02T23:26:10.893Z,56.79
2018-10-02T23:28:38.356Z,56.63
2018-10-02T23:31:05.751Z,56.67
2018-10-02T23:33:33.273Z,56.68
2018-10-02T23:36:00.701Z,56.57
2018-10-02T23:38:28.185Z,55.98
2018-10-02T23:40:55.621Z,55.91
2018-10-02T23:43:23.032Z,56.13
2018-10-02T23:45:50.441Z,56.43
2018-10-02T23:48:18.450Z,56.34
2018-10-02T23:50:46.392Z,56.18
2018-10-02T23:53:13.845Z,56.05
2018-10-02T23:55:41.286Z,55.88
2018-10-02T23:58:08.735Z,56.29
